aviador You're here:

LFSN Decoded Metar

NANCY ESSEY in FRANCE
Report Time2017-12-11 05:00:00
UTC Time2017-12-11 05:27:31
Flight Rules mvfr MVFR
Wind110° at 05 kt
W.Decomp.*RWY 03: 0.9 kt HW 4.9 kt RCW
W.Rank110° ranks 29
Current wind is above 110° avg. (3.3)
Visibility5000 m
Phenomena:Rain
Mist
Clouds:Broken 012 Hf
Overcast 018 Hf
Expected CloudBase > 400 ft AGL from Temp-Dew spread
Ceiling1,200 ft
Temp07°C (ISA -7)
Dew Point06°C (93% RH)
AAT4.3°C
QNH0980 hPa
Density Alt1,188 ft
Elevation712 ft
Report Wrong Elevation
Raw Report
LFSN 110500Z AUTO 11005KT 5000 RA BR BKN012 OVC018 07/06 Q0980=

Extra information for LFSN:More info

Metar Taf Metar & Taf Last 4 Metars F.Rules Stats Wind Profile Meteogram Temp Stats Airport Information Weather charts Add Link Nearby VenuesMetar ALERT Operation Metar Decoded Social comments